sensor_id;sensor_type;location;lat;lon;timestamp;temperature;humidity
4356;DHT22;64374;51.482;7.408;2022-12-10T00:02:27;6.20;99.90
4356;DHT22;64374;51.482;7.408;2022-12-10T00:04:57;6.30;99.90
4356;DHT22;64374;51.482;7.408;2022-12-10T00:07:25;6.20;99.90
4356;DHT22;64374;51.482;7.408;2022-12-10T00:09:53;6.20;99.90
4356;DHT22;64374;51.482;7.408;2022-12-10T00:12:29;6.50;99.90
4356;DHT22;64374;51.482;7.408;2022-12-10T00:14:58;6.60;99.90
4356;DHT22;64374;51.482;7.408;2022-12-10T00:17:26;6.50;99.90
4356;DHT22;64374;51.482;7.408;2022-12-10T00:19:54;6.60;99.90
4356;DHT22;64374;51.482;7.408;2022-12-10T00:22:22;6.70;99.90
4356;DHT22;64374;51.482;7.408;2022-12-10T00:24:52;6.90;99.90
4356;DHT22;64374;51.482;7.408;2022-12-10T00:27:20;7.10;99.90
4356;DHT22;64374;51.482;7.408;2022-12-10T00:29:50;6.90;99.90
4356;DHT22;64374;51.482;7.408;2022-12-10T00:32:21;7.00;99.90
4356;DHT22;64374;51.482;7.408;2022-12-10T00:34:50;6.90;99.90
4356;DHT22;64374;51.482;7.408;2022-12-10T00:37:21;6.90;99.90
4356;DHT22;64374;51.482;7.408;2022-12-10T00:39:52;6.90;99.90
4356;DHT22;64374;51.482;7.408;2022-12-10T00:42:22;6.90;99.90
4356;DHT22;64374;51.482;7.408;2022-12-10T00:44:53;6.80;99.90
4356;DHT22;64374;51.482;7.408;2022-12-10T00:47:22;6.90;99.90
4356;DHT22;64374;51.482;7.408;2022-12-10T00:49:52;6.80;99.90
4356;DHT22;64374;51.482;7.408;2022-12-10T00:52:20;7.10;99.90
4356;DHT22;64374;51.482;7.408;2022-12-10T00:54:49;7.10;99.90
4356;DHT22;64374;51.482;7.408;2022-12-10T00:57:17;6.90;99.90
4356;DHT22;64374;51.482;7.408;2022-12-10T00:59:46;6.90;99.90
4356;DHT22;64374;51.482;7.408;2022-12-10T01:02:24;6.50;99.90
4356;DHT22;64374;51.482;7.408;2022-12-10T01:04:52;6.50;99.90
4356;DHT22;64374;51.482;7.408;2022-12-10T01:07:23;6.30;99.90
4356;DHT22;64374;51.482;7.408;2022-12-10T01:09:52;6.50;99.90
4356;DHT22;64374;51.482;7.408;2022-12-10T01:12:21;6.60;99.90
4356;DHT22;64374;51.482;7.408;2022-12-10T01:14:54;6.70;99.90
4356;DHT22;64374;51.482;7.408;2022-12-10T01:17:24;6.50;99.90
4356;DHT22;64374;51.482;7.408;2022-12-10T01:19:52;6.50;99.90
4356;DHT22;64374;51.482;7.408;2022-12-10T01:22:20;6.50;99.90
4356;DHT22;64374;51.482;7.408;2022-12-10T01:24:49;6.70;99.90
4356;DHT22;64374;51.482;7.408;2022-12-10T01:27:17;6.70;99.90
4356;DHT22;64374;51.482;7.408;2022-12-10T01:29:46;6.80;99.90
4356;DHT22;64374;51.482;7.408;2022-12-10T01:32:14;6.70;99.90
4356;DHT22;64374;51.482;7.408;2022-12-10T01:34:54;6.90;99.90
4356;DHT22;64374;51.482;7.408;2022-12-10T01:37:24;6.90;99.90
4356;DHT22;64374;51.482;7.408;2022-12-10T01:39:52;7.00;99.90
4356;DHT22;64374;51.482;7.408;2022-12-10T01:42:20;7.00;99.90
4356;DHT22;64374;51.482;7.408;2022-12-10T01:45:05;6.90;99.90
4356;DHT22;64374;51.482;7.408;2022-12-10T01:47:33;7.00;99.90
4356;DHT22;64374;51.482;7.408;2022-12-10T01:50:05;7.10;99.90
4356;DHT22;64374;51.482;7.408;2022-12-10T01:52:36;7.10;99.90
4356;DHT22;64374;51.482;7.408;2022-12-10T01:55:44;7.10;99.90
4356;DHT22;64374;51.482;7.408;2022-12-10T01:58:16;7.00;99.90
4356;DHT22;64374;51.482;7.408;2022-12-10T02:01:03;7.00;99.90
4356;DHT22;64374;51.482;7.408;2022-12-10T02:03:39;7.00;99.90
4356;DHT22;64374;51.482;7.408;2022-12-10T02:06:22;7.10;99.90
4356;DHT22;64374;51.482;7.408;2022-12-10T02:09:00;7.30;99.90
4356;DHT22;64374;51.482;7.408;2022-12-10T02:11:38;6.80;99.90
4356;DHT22;64374;51.482;7.408;2022-12-10T02:14:19;6.80;99.90
4356;DHT22;64374;51.482;7.408;2022-12-10T02:16:57;6.80;99.90
4356;DHT22;64374;51.482;7.408;2022-12-10T02:19:41;6.90;99.90
4356;DHT22;64374;51.482;7.408;2022-12-10T02:22:15;6.80;99.90
4356;DHT22;64374;51.482;7.408;2022-12-10T02:24:45;7.00;99.90
4356;DHT22;64374;51.482;7.408;2022-12-10T02:27:20;7.00;99.90
4356;DHT22;64374;51.482;7.408;2022-12-10T02:29:53;7.10;99.90
4356;DHT22;64374;51.482;7.408;2022-12-10T02:32:25;7.00;99.90
4356;DHT22;64374;51.482;7.408;2022-12-10T02:35:01;7.00;99.90
4356;DHT22;64374;51.482;7.408;2022-12-10T02:37:35;7.10;99.90
4356;DHT22;64374;51.482;7.408;2022-12-10T02:40:10;7.00;99.90
4356;DHT22;64374;51.482;7.408;2022-12-10T02:42:44;6.90;99.90
4356;DHT22;64374;51.482;7.408;2022-12-10T02:45:18;7.00;99.90
4356;DHT22;64374;51.482;7.408;2022-12-10T02:47:51;7.00;99.90
4356;DHT22;64374;51.482;7.408;2022-12-10T02:50:30;7.20;99.90
4356;DHT22;64374;51.482;7.408;2022-12-10T02:52:59;6.90;99.90
4356;DHT22;64374;51.482;7.408;2022-12-10T02:55:30;6.90;99.90
4356;DHT22;64374;51.482;7.408;2022-12-10T02:58:10;6.90;99.90
4356;DHT22;64374;51.482;7.408;2022-12-10T03:00:51;7.10;99.90
4356;DHT22;64374;51.482;7.408;2022-12-10T03:03:32;7.20;99.90
4356;DHT22;64374;51.482;7.408;2022-12-10T03:06:07;7.40;99.90
4356;DHT22;64374;51.482;7.408;2022-12-10T03:08:42;7.20;99.90
4356;DHT22;64374;51.482;7.408;2022-12-10T03:11:16;7.60;99.90
4356;DHT22;64374;51.482;7.408;2022-12-10T03:13:50;7.30;99.90
4356;DHT22;64374;51.482;7.408;2022-12-10T03:16:22;7.10;99.90
4356;DHT22;64374;51.482;7.408;2022-12-10T03:18:56;7.20;99.90
4356;DHT22;64374;51.482;7.408;2022-12-10T03:21:26;6.90;99.90
4356;DHT22;64374;51.482;7.408;2022-12-10T03:23:58;6.90;99.90
4356;DHT22;64374;51.482;7.408;2022-12-10T03:26:27;7.20;99.90
4356;DHT22;64374;51.482;7.408;2022-12-10T03:29:01;7.00;99.90
4356;DHT22;64374;51.482;7.408;2022-12-10T03:31:35;7.00;99.90
4356;DHT22;64374;51.482;7.408;2022-12-10T03:34:04;7.10;99.90
4356;DHT22;64374;51.482;7.408;2022-12-10T03:36:33;7.00;99.90
4356;DHT22;64374;51.482;7.408;2022-12-10T03:39:02;6.70;99.90
4356;DHT22;64374;51.482;7.408;2022-12-10T03:41:32;6.70;99.90
4356;DHT22;64374;51.482;7.408;2022-12-10T03:44:05;6.70;99.90
4356;DHT22;64374;51.482;7.408;2022-12-10T03:46:35;6.60;99.90
4356;DHT22;64374;51.482;7.408;2022-12-10T03:49:05;6.70;99.90
4356;DHT22;64374;51.482;7.408;2022-12-10T03:51:33;6.60;99.90
4356;DHT22;64374;51.482;7.408;2022-12-10T03:54:01;6.40;99.90
4356;DHT22;64374;51.482;7.408;2022-12-10T03:56:32;6.60;99.90
4356;DHT22;64374;51.482;7.408;2022-12-10T03:59:01;6.50;99.90
4356;DHT22;64374;51.482;7.408;2022-12-10T04:01:29;6.70;99.90
4356;DHT22;64374;51.482;7.408;2022-12-10T04:04:07;6.80;99.90
4356;DHT22;64374;51.482;7.408;2022-12-10T04:06:37;6.90;99.90
4356;DHT22;64374;51.482;7.408;2022-12-10T04:09:06;7.10;99.90
4356;DHT22;64374;51.482;7.408;2022-12-10T04:11:34;7.00;99.90
4356;DHT22;64374;51.482;7.408;2022-12-10T04:14:02;7.00;99.90
4356;DHT22;64374;51.482;7.408;2022-12-10T04:16:48;6.80;99.90
4356;DHT22;64374;51.482;7.408;2022-12-10T04:19:18;7.00;99.90
4356;DHT22;64374;51.482;7.408;2022-12-10T04:21:47;6.80;99.90
4356;DHT22;64374;51.482;7.408;2022-12-10T04:24:35;6.60;99.90
4356;DHT22;64374;51.482;7.408;2022-12-10T04:27:25;6.80;99.90
4356;DHT22;64374;51.482;7.408;2022-12-10T04:29:55;6.90;99.90
4356;DHT22;64374;51.482;7.408;2022-12-10T04:32:25;7.00;99.90
4356;DHT22;64374;51.482;7.408;2022-12-10T04:34:57;6.90;99.90
4356;DHT22;64374;51.482;7.408;2022-12-10T04:37:26;6.70;99.90
4356;DHT22;64374;51.482;7.408;2022-12-10T04:39:55;6.60;99.90
4356;DHT22;64374;51.482;7.408;2022-12-10T04:42:24;6.70;99.90
4356;DHT22;64374;51.482;7.408;2022-12-10T04:44:52;6.60;99.90
4356;DHT22;64374;51.482;7.408;2022-12-10T04:47:23;6.70;99.90
4356;DHT22;64374;51.482;7.408;2022-12-10T04:49:51;6.80;99.90
4356;DHT22;64374;51.482;7.408;2022-12-10T04:52:21;6.80;99.90
4356;DHT22;64374;51.482;7.408;2022-12-10T04:54:49;6.60;99.90
4356;DHT22;64374;51.482;7.408;2022-12-10T04:57:18;6.70;99.90
4356;DHT22;64374;51.482;7.408;2022-12-10T04:59:46;6.70;99.90
4356;DHT22;64374;51.482;7.408;2022-12-10T05:02:14;6.80;99.90
4356;DHT22;64374;51.482;7.408;2022-12-10T05:04:42;6.80;99.90
4356;DHT22;64374;51.482;7.408;2022-12-10T05:07:11;6.70;99.90
4356;DHT22;64374;51.482;7.408;2022-12-10T05:09:40;6.90;99.90
4356;DHT22;64374;51.482;7.408;2022-12-10T05:12:11;7.00;99.90
4356;DHT22;64374;51.482;7.408;2022-12-10T05:14:40;6.80;99.90
4356;DHT22;64374;51.482;7.408;2022-12-10T05:17:08;6.70;99.90
4356;DHT22;64374;51.482;7.408;2022-12-10T05:19:36;6.70;99.90
4356;DHT22;64374;51.482;7.408;2022-12-10T05:22:04;6.50;99.90
4356;DHT22;64374;51.482;7.408;2022-12-10T05:24:54;6.60;99.90
4356;DHT22;64374;51.482;7.408;2022-12-10T05:27:23;6.70;99.90
4356;DHT22;64374;51.482;7.408;2022-12-10T05:29:51;6.80;99.90
4356;DHT22;64374;51.482;7.408;2022-12-10T05:32:19;6.80;99.90
4356;DHT22;64374;51.482;7.408;2022-12-10T05:34:47;6.70;99.90
4356;DHT22;64374;51.482;7.408;2022-12-10T05:37:15;6.70;99.90
4356;DHT22;64374;51.482;7.408;2022-12-10T05:39:44;6.70;99.90
4356;DHT22;64374;51.482;7.408;2022-12-10T05:42:14;6.90;99.90
4356;DHT22;64374;51.482;7.408;2022-12-10T05:44:42;6.90;99.90
4356;DHT22;64374;51.482;7.408;2022-12-10T05:47:11;6.90;99.90
4356;DHT22;64374;51.482;7.408;2022-12-10T05:49:42;6.90;99.90
4356;DHT22;64374;51.482;7.408;2022-12-10T05:52:21;7.00;99.90
4356;DHT22;64374;51.482;7.408;2022-12-10T05:54:49;7.00;99.90
4356;DHT22;64374;51.482;7.408;2022-12-10T05:57:21;7.00;99.90
4356;DHT22;64374;51.482;7.408;2022-12-10T05:59:50;6.90;99.90
4356;DHT22;64374;51.482;7.408;2022-12-10T06:02:18;7.10;99.90
4356;DHT22;64374;51.482;7.408;2022-12-10T06:04:49;7.10;99.90
4356;DHT22;64374;51.482;7.408;2022-12-10T06:07:18;7.10;99.90
4356;DHT22;64374;51.482;7.408;2022-12-10T06:09:46;7.20;99.90
4356;DHT22;64374;51.482;7.408;2022-12-10T06:12:25;6.90;99.90
4356;DHT22;64374;51.482;7.408;2022-12-10T06:14:57;6.80;99.90
4356;DHT22;64374;51.482;7.408;2022-12-10T06:17:26;6.70;99.90
4356;DHT22;64374;51.482;7.408;2022-12-10T06:19:54;6.80;99.90
4356;DHT22;64374;51.482;7.408;2022-12-10T06:22:22;6.90;99.90
4356;DHT22;64374;51.482;7.408;2022-12-10T06:24:50;6.80;99.90
4356;DHT22;64374;51.482;7.408;2022-12-10T06:27:26;6.80;99.90
4356;DHT22;64374;51.482;7.408;2022-12-10T06:29:57;6.70;99.90
4356;DHT22;64374;51.482;7.408;2022-12-10T06:32:26;6.50;99.90
4356;DHT22;64374;51.482;7.408;2022-12-10T06:34:55;6.40;99.90
4356;DHT22;64374;51.482;7.408;2022-12-10T06:37:25;6.50;99.90
4356;DHT22;64374;51.482;7.408;2022-12-10T06:39:53;6.60;99.90
4356;DHT22;64374;51.482;7.408;2022-12-10T06:42:24;6.60;99.90
4356;DHT22;64374;51.482;7.408;2022-12-10T06:44:54;6.70;99.90
4356;DHT22;64374;51.482;7.408;2022-12-10T06:47:22;6.50;99.90
4356;DHT22;64374;51.482;7.408;2022-12-10T06:49:51;6.60;99.90
4356;DHT22;64374;51.482;7.408;2022-12-10T06:52:19;6.50;99.90
4356;DHT22;64374;51.482;7.408;2022-12-10T06:54:48;6.50;99.90
4356;DHT22;64374;51.482;7.408;2022-12-10T06:57:16;6.70;99.90
4356;DHT22;64374;51.482;7.408;2022-12-10T06:59:44;6.70;99.90
4356;DHT22;64374;51.482;7.408;2022-12-10T07:02:16;6.50;99.90
4356;DHT22;64374;51.482;7.408;2022-12-10T07:04:46;6.50;99.90
4356;DHT22;64374;51.482;7.408;2022-12-10T07:07:14;6.50;99.90
4356;DHT22;64374;51.482;7.408;2022-12-10T07:09:46;6.60;99.90
4356;DHT22;64374;51.482;7.408;2022-12-10T07:12:14;6.60;99.90
4356;DHT22;64374;51.482;7.408;2022-12-10T07:14:42;6.80;99.90
4356;DHT22;64374;51.482;7.408;2022-12-10T07:17:10;6.70;99.90
4356;DHT22;64374;51.482;7.408;2022-12-10T07:19:42;6.60;99.90
4356;DHT22;64374;51.482;7.408;2022-12-10T07:22:11;6.60;99.90
4356;DHT22;64374;51.482;7.408;2022-12-10T07:24:42;6.50;99.90
4356;DHT22;64374;51.482;7.408;2022-12-10T07:27:10;6.60;99.90
4356;DHT22;64374;51.482;7.408;2022-12-10T07:29:38;6.70;99.90
4356;DHT22;64374;51.482;7.408;2022-12-10T07:32:10;6.40;99.90
4356;DHT22;64374;51.482;7.408;2022-12-10T07:34:38;6.50;99.90
4356;DHT22;64374;51.482;7.408;2022-12-10T07:37:09;6.40;99.90
4356;DHT22;64374;51.482;7.408;2022-12-10T07:39:37;6.60;99.90
4356;DHT22;64374;51.482;7.408;2022-12-10T07:42:06;6.50;99.90
4356;DHT22;64374;51.482;7.408;2022-12-10T07:44:37;6.50;99.90
4356;DHT22;64374;51.482;7.408;2022-12-10T07:47:05;6.60;99.90
4356;DHT22;64374;51.482;7.408;2022-12-10T07:49:34;6.60;99.90
4356;DHT22;64374;51.482;7.408;2022-12-10T07:52:02;6.60;99.90
4356;DHT22;64374;51.482;7.408;2022-12-10T07:54:37;6.60;99.90
4356;DHT22;64374;51.482;7.408;2022-12-10T07:57:05;6.60;99.90
4356;DHT22;64374;51.482;7.408;2022-12-10T07:59:33;6.60;99.90
4356;DHT22;64374;51.482;7.408;2022-12-10T08:02:04;6.60;99.90
4356;DHT22;64374;51.482;7.408;2022-12-10T08:04:35;6.50;99.90
4356;DHT22;64374;51.482;7.408;2022-12-10T08:07:04;6.50;99.90
4356;DHT22;64374;51.482;7.408;2022-12-10T08:09:34;6.40;99.90
4356;DHT22;64374;51.482;7.408;2022-12-10T08:12:04;6.70;99.90
4356;DHT22;64374;51.482;7.408;2022-12-10T08:14:33;6.50;99.90
4356;DHT22;64374;51.482;7.408;2022-12-10T08:17:01;6.50;99.90
4356;DHT22;64374;51.482;7.408;2022-12-10T08:19:29;6.60;99.90
4356;DHT22;64374;51.482;7.408;2022-12-10T08:21:58;6.60;99.90
4356;DHT22;64374;51.482;7.408;2022-12-10T08:24:26;6.50;99.90
4356;DHT22;64374;51.482;7.408;2022-12-10T08:26:55;6.60;99.90
4356;DHT22;64374;51.482;7.408;2022-12-10T08:29:25;6.50;99.90
4356;DHT22;64374;51.482;7.408;2022-12-10T08:31:54;6.70;99.90
4356;DHT22;64374;51.482;7.408;2022-12-10T08:34:25;6.70;99.90
4356;DHT22;64374;51.482;7.408;2022-12-10T08:36:53;6.80;99.90
4356;DHT22;64374;51.482;7.408;2022-12-10T08:39:21;6.80;99.90
4356;DHT22;64374;51.482;7.408;2022-12-10T08:41:54;6.80;99.90
4356;DHT22;64374;51.482;7.408;2022-12-10T08:44:29;6.70;99.90
4356;DHT22;64374;51.482;7.408;2022-12-10T08:46:57;6.70;99.90
4356;DHT22;64374;51.482;7.408;2022-12-10T08:49:28;6.60;99.90
4356;DHT22;64374;51.482;7.408;2022-12-10T08:51:57;6.70;99.90
4356;DHT22;64374;51.482;7.408;2022-12-10T08:54:25;6.70;99.90
4356;DHT22;64374;51.482;7.408;2022-12-10T08:56:53;6.60;99.90
4356;DHT22;64374;51.482;7.408;2022-12-10T08:59:21;6.70;99.90
4356;DHT22;64374;51.482;7.408;2022-12-10T09:02:01;6.70;99.90
4356;DHT22;64374;51.482;7.408;2022-12-10T09:04:30;6.80;99.90
4356;DHT22;64374;51.482;7.408;2022-12-10T09:06:58;6.80;99.90
4356;DHT22;64374;51.482;7.408;2022-12-10T09:09:28;6.80;99.90
4356;DHT22;64374;51.482;7.408;2022-12-10T09:12:01;6.70;99.90
4356;DHT22;64374;51.482;7.408;2022-12-10T09:14:30;6.80;99.90
4356;DHT22;64374;51.482;7.408;2022-12-10T09:17:01;6.60;99.90
4356;DHT22;64374;51.482;7.408;2022-12-10T09:19:31;6.70;99.90
4356;DHT22;64374;51.482;7.408;2022-12-10T09:22:00;6.70;99.90
4356;DHT22;64374;51.482;7.408;2022-12-10T09:24:31;6.70;99.90
4356;DHT22;64374;51.482;7.408;2022-12-10T09:27:00;6.70;99.90
4356;DHT22;64374;51.482;7.408;2022-12-10T09:29:29;6.80;99.90
4356;DHT22;64374;51.482;7.408;2022-12-10T09:32:06;6.90;99.90
4356;DHT22;64374;51.482;7.408;2022-12-10T09:34:35;7.10;99.90
4356;DHT22;64374;51.482;7.408;2022-12-10T09:37:03;6.90;99.90
4356;DHT22;64374;51.482;7.408;2022-12-10T09:39:39;6.70;99.90
4356;DHT22;64374;51.482;7.408;2022-12-10T09:42:16;6.60;99.90
4356;DHT22;64374;51.482;7.408;2022-12-10T09:44:55;6.20;99.90
4356;DHT22;64374;51.482;7.408;2022-12-10T09:47:34;6.20;99.90
4356;DHT22;64374;51.482;7.408;2022-12-10T09:50:14;6.30;99.90
4356;DHT22;64374;51.482;7.408;2022-12-10T09:52:46;6.40;99.90
4356;DHT22;64374;51.482;7.408;2022-12-10T09:55:19;6.30;99.90
4356;DHT22;64374;51.482;7.408;2022-12-10T09:57:54;6.30;99.90
4356;DHT22;64374;51.482;7.408;2022-12-10T10:00:26;6.10;99.90
4356;DHT22;64374;51.482;7.408;2022-12-10T10:03:02;6.10;99.90
4356;DHT22;64374;51.482;7.408;2022-12-10T10:05:34;6.20;99.90
4356;DHT22;64374;51.482;7.408;2022-12-10T10:08:14;6.30;99.90
4356;DHT22;64374;51.482;7.408;2022-12-10T10:10:44;6.40;99.90
4356;DHT22;64374;51.482;7.408;2022-12-10T10:13:16;6.30;99.90
4356;DHT22;64374;51.482;7.408;2022-12-10T10:15:46;6.30;99.90
4356;DHT22;64374;51.482;7.408;2022-12-10T10:18:21;6.20;99.90
4356;DHT22;64374;51.482;7.408;2022-12-10T10:20:56;6.00;99.90
4356;DHT22;64374;51.482;7.408;2022-12-10T10:23:28;5.90;99.90
4356;DHT22;64374;51.482;7.408;2022-12-10T10:25:56;6.00;99.90
4356;DHT22;64374;51.482;7.408;2022-12-10T10:28:25;6.00;99.90
4356;DHT22;64374;51.482;7.408;2022-12-10T10:31:02;6.00;99.90
4356;DHT22;64374;51.482;7.408;2022-12-10T10:33:47;5.70;99.90
4356;DHT22;64374;51.482;7.408;2022-12-10T10:36:16;5.90;99.90
4356;DHT22;64374;51.482;7.408;2022-12-10T10:38:48;5.70;99.90
4356;DHT22;64374;51.482;7.408;2022-12-10T10:41:16;5.70;99.90
4356;DHT22;64374;51.482;7.408;2022-12-10T10:43:44;5.90;99.90
4356;DHT22;64374;51.482;7.408;2022-12-10T10:46:15;5.80;99.90
4356;DHT22;64374;51.482;7.408;2022-12-10T10:49:12;5.60;99.90
4356;DHT22;64374;51.482;7.408;2022-12-10T10:51:45;5.70;99.90
4356;DHT22;64374;51.482;7.408;2022-12-10T10:54:32;5.50;99.90
4356;DHT22;64374;51.482;7.408;2022-12-10T10:57:03;5.60;99.90
4356;DHT22;64374;51.482;7.408;2022-12-10T10:59:35;5.20;99.90
4356;DHT22;64374;51.482;7.408;2022-12-10T11:02:18;5.10;99.90
4356;DHT22;64374;51.482;7.408;2022-12-10T11:04:51;5.00;99.90
4356;DHT22;64374;51.482;7.408;2022-12-10T11:07:24;5.10;99.90
4356;DHT22;64374;51.482;7.408;2022-12-10T11:09:54;4.80;99.90
4356;DHT22;64374;51.482;7.408;2022-12-10T11:12:29;4.70;99.90
4356;DHT22;64374;51.482;7.408;2022-12-10T11:15:28;4.80;99.90
4356;DHT22;64374;51.482;7.408;2022-12-10T11:17:57;4.90;99.90
4356;DHT22;64374;51.482;7.408;2022-12-10T11:20:29;5.10;99.90
4356;DHT22;64374;51.482;7.408;2022-12-10T11:23:10;5.20;99.90
4356;DHT22;64374;51.482;7.408;2022-12-10T11:25:45;5.30;99.90
4356;DHT22;64374;51.482;7.408;2022-12-10T11:28:28;5.30;99.90
4356;DHT22;64374;51.482;7.408;2022-12-10T11:31:12;5.10;99.90
4356;DHT22;64374;51.482;7.408;2022-12-10T11:33:47;5.00;99.90
4356;DHT22;64374;51.482;7.408;2022-12-10T11:36:29;4.70;99.90
4356;DHT22;64374;51.482;7.408;2022-12-10T11:39:05;4.90;99.90
4356;DHT22;64374;51.482;7.408;2022-12-10T11:41:42;4.90;99.90
4356;DHT22;64374;51.482;7.408;2022-12-10T11:44:20;4.80;99.90
4356;DHT22;64374;51.482;7.408;2022-12-10T11:47:23;4.90;99.90
4356;DHT22;64374;51.482;7.408;2022-12-10T11:50:01;4.70;99.90
4356;DHT22;64374;51.482;7.408;2022-12-10T11:52:44;4.70;99.90
4356;DHT22;64374;51.482;7.408;2022-12-10T11:55:22;4.70;99.90
4356;DHT22;64374;51.482;7.408;2022-12-10T11:58:06;4.50;99.90
4356;DHT22;64374;51.482;7.408;2022-12-10T12:00:42;4.70;99.90
4356;DHT22;64374;51.482;7.408;2022-12-10T12:03:34;4.90;99.90
4356;DHT22;64374;51.482;7.408;2022-12-10T12:06:24;5.10;99.90
4356;DHT22;64374;51.482;7.408;2022-12-10T12:09:05;5.40;99.90
4356;DHT22;64374;51.482;7.408;2022-12-10T12:11:51;5.60;99.90
4356;DHT22;64374;51.482;7.408;2022-12-10T12:14:25;5.80;99.90
4356;DHT22;64374;51.482;7.408;2022-12-10T12:17:02;5.70;99.90
4356;DHT22;64374;51.482;7.408;2022-12-10T12:19:37;5.40;99.90
4356;DHT22;64374;51.482;7.408;2022-12-10T12:22:13;5.50;99.90
4356;DHT22;64374;51.482;7.408;2022-12-10T12:24:44;5.60;99.90
4356;DHT22;64374;51.482;7.408;2022-12-10T12:27:22;5.70;99.90
4356;DHT22;64374;51.482;7.408;2022-12-10T12:30:00;5.80;99.90
4356;DHT22;64374;51.482;7.408;2022-12-10T12:32:34;5.90;99.90
4356;DHT22;64374;51.482;7.408;2022-12-10T12:35:09;5.80;99.90
4356;DHT22;64374;51.482;7.408;2022-12-10T12:37:41;5.90;99.90
4356;DHT22;64374;51.482;7.408;2022-12-10T12:40:15;5.60;99.90
4356;DHT22;64374;51.482;7.408;2022-12-10T12:42:52;5.30;99.90
4356;DHT22;64374;51.482;7.408;2022-12-10T12:45:32;5.50;99.90
4356;DHT22;64374;51.482;7.408;2022-12-10T12:48:09;5.60;99.90
4356;DHT22;64374;51.482;7.408;2022-12-10T12:50:43;5.90;99.90
4356;DHT22;64374;51.482;7.408;2022-12-10T12:53:13;5.80;99.90
4356;DHT22;64374;51.482;7.408;2022-12-10T12:55:55;5.50;99.90
4356;DHT22;64374;51.482;7.408;2022-12-10T12:58:34;5.40;99.90
4356;DHT22;64374;51.482;7.408;2022-12-10T13:01:16;5.40;99.90
4356;DHT22;64374;51.482;7.408;2022-12-10T13:03:48;5.60;99.90
4356;DHT22;64374;51.482;7.408;2022-12-10T13:06:21;5.40;99.90
4356;DHT22;64374;51.482;7.408;2022-12-10T13:08:57;5.50;99.90
4356;DHT22;64374;51.482;7.408;2022-12-10T13:11:33;5.50;99.90
4356;DHT22;64374;51.482;7.408;2022-12-10T13:14:15;5.40;99.90
4356;DHT22;64374;51.482;7.408;2022-12-10T13:17:08;5.40;99.90
4356;DHT22;64374;51.482;7.408;2022-12-10T13:19:40;5.60;99.90
4356;DHT22;64374;51.482;7.408;2022-12-10T13:22:10;5.60;99.90
4356;DHT22;64374;51.482;7.408;2022-12-10T13:25:03;5.60;99.90
4356;DHT22;64374;51.482;7.408;2022-12-10T13:27:34;5.40;99.90
4356;DHT22;64374;51.482;7.408;2022-12-10T13:32:53;5.30;99.90
4356;DHT22;64374;51.482;7.408;2022-12-10T13:35:29;5.40;99.90
4356;DHT22;64374;51.482;7.408;2022-12-10T13:38:05;5.40;99.90
4356;DHT22;64374;51.482;7.408;2022-12-10T13:40:58;5.40;99.90
4356;DHT22;64374;51.482;7.408;2022-12-10T13:43:59;5.60;99.90
4356;DHT22;64374;51.482;7.408;2022-12-10T13:47:00;5.70;99.90
4356;DHT22;64374;51.482;7.408;2022-12-10T13:49:42;5.70;99.90
4356;DHT22;64374;51.482;7.408;2022-12-10T13:52:18;5.70;99.90
4356;DHT22;64374;51.482;7.408;2022-12-10T13:58:12;5.80;99.90
4356;DHT22;64374;51.482;7.408;2022-12-10T14:00:49;5.60;99.90
4356;DHT22;64374;51.482;7.408;2022-12-10T14:03:48;5.80;99.90
4356;DHT22;64374;51.482;7.408;2022-12-10T14:06:25;5.80;99.90
4356;DHT22;64374;51.482;7.408;2022-12-10T14:08:57;5.50;99.90
4356;DHT22;64374;51.482;7.408;2022-12-10T14:11:30;5.60;99.90
4356;DHT22;64374;51.482;7.408;2022-12-10T14:14:06;5.60;99.90
4356;DHT22;64374;51.482;7.408;2022-12-10T14:16:42;5.60;99.90
4356;DHT22;64374;51.482;7.408;2022-12-10T14:19:13;5.80;99.90
4356;DHT22;64374;51.482;7.408;2022-12-10T14:21:44;5.90;99.90
4356;DHT22;64374;51.482;7.408;2022-12-10T14:24:30;5.80;99.90
4356;DHT22;64374;51.482;7.408;2022-12-10T14:27:02;6.00;99.90
4356;DHT22;64374;51.482;7.408;2022-12-10T14:29:46;6.10;99.90
4356;DHT22;64374;51.482;7.408;2022-12-10T14:32:18;6.20;99.90
4356;DHT22;64374;51.482;7.408;2022-12-10T14:34:51;6.20;99.90
4356;DHT22;64374;51.482;7.408;2022-12-10T14:37:27;6.20;99.90
4356;DHT22;64374;51.482;7.408;2022-12-10T14:39:56;6.10;99.90
4356;DHT22;64374;51.482;7.408;2022-12-10T14:42:25;6.20;99.90
4356;DHT22;64374;51.482;7.408;2022-12-10T14:44:57;6.10;99.90
4356;DHT22;64374;51.482;7.408;2022-12-10T14:47:32;6.00;99.90
4356;DHT22;64374;51.482;7.408;2022-12-10T14:50:10;6.00;99.90
4356;DHT22;64374;51.482;7.408;2022-12-10T14:52:44;5.90;99.90
4356;DHT22;64374;51.482;7.408;2022-12-10T14:55:13;5.80;99.90
4356;DHT22;64374;51.482;7.408;2022-12-10T14:57:44;5.80;99.90
4356;DHT22;64374;51.482;7.408;2022-12-10T15:00:18;5.90;99.90
4356;DHT22;64374;51.482;7.408;2022-12-10T15:02:51;5.70;99.90
4356;DHT22;64374;51.482;7.408;2022-12-10T15:05:21;5.80;99.90
4356;DHT22;64374;51.482;7.408;2022-12-10T15:07:54;5.70;99.90
4356;DHT22;64374;51.482;7.408;2022-12-10T15:10:24;5.80;99.90
4356;DHT22;64374;51.482;7.408;2022-12-10T15:12:55;5.90;99.90
4356;DHT22;64374;51.482;7.408;2022-12-10T15:15:29;5.90;99.90
4356;DHT22;64374;51.482;7.408;2022-12-10T15:18:03;5.80;99.90
4356;DHT22;64374;51.482;7.408;2022-12-10T15:20:44;5.80;99.90
4356;DHT22;64374;51.482;7.408;2022-12-10T15:23:19;6.00;99.90
4356;DHT22;64374;51.482;7.408;2022-12-10T15:25:52;6.20;99.90
4356;DHT22;64374;51.482;7.408;2022-12-10T15:28:29;6.10;99.90
4356;DHT22;64374;51.482;7.408;2022-12-10T15:31:12;6.30;99.90
4356;DHT22;64374;51.482;7.408;2022-12-10T15:33:47;6.30;99.90
4356;DHT22;64374;51.482;7.408;2022-12-10T15:36:27;6.30;99.90
4356;DHT22;64374;51.482;7.408;2022-12-10T15:39:03;6.10;99.90
4356;DHT22;64374;51.482;7.408;2022-12-10T15:41:43;6.00;99.90
4356;DHT22;64374;51.482;7.408;2022-12-10T15:44:22;6.00;99.90
4356;DHT22;64374;51.482;7.408;2022-12-10T15:46:58;5.90;99.90
4356;DHT22;64374;51.482;7.408;2022-12-10T15:49:28;5.80;99.90
4356;DHT22;64374;51.482;7.408;2022-12-10T15:51:58;5.90;99.90
4356;DHT22;64374;51.482;7.408;2022-12-10T15:54:30;5.60;99.90
4356;DHT22;64374;51.482;7.408;2022-12-10T15:57:00;5.70;99.90
4356;DHT22;64374;51.482;7.408;2022-12-10T15:59:31;5.80;99.90
4356;DHT22;64374;51.482;7.408;2022-12-10T16:02:00;6.00;99.90
4356;DHT22;64374;51.482;7.408;2022-12-10T16:04:31;6.00;99.90
4356;DHT22;64374;51.482;7.408;2022-12-10T16:07:00;5.90;99.90
4356;DHT22;64374;51.482;7.408;2022-12-10T16:09:28;5.80;99.90
4356;DHT22;64374;51.482;7.408;2022-12-10T16:11:57;5.90;99.90
4356;DHT22;64374;51.482;7.408;2022-12-10T16:14:25;5.80;99.90
4356;DHT22;64374;51.482;7.408;2022-12-10T16:16:56;5.80;99.90
4356;DHT22;64374;51.482;7.408;2022-12-10T16:19:24;6.00;99.90
4356;DHT22;64374;51.482;7.408;2022-12-10T16:21:57;6.00;99.90
4356;DHT22;64374;51.482;7.408;2022-12-10T16:24:28;5.90;99.90
4356;DHT22;64374;51.482;7.408;2022-12-10T16:27:12;5.90;99.90
4356;DHT22;64374;51.482;7.408;2022-12-10T16:29:49;6.10;99.90
4356;DHT22;64374;51.482;7.408;2022-12-10T16:32:25;6.00;99.90
4356;DHT22;64374;51.482;7.408;2022-12-10T16:34:54;5.90;99.90
4356;DHT22;64374;51.482;7.408;2022-12-10T16:37:26;6.00;99.90
4356;DHT22;64374;51.482;7.408;2022-12-10T16:39:57;6.10;99.90
4356;DHT22;64374;51.482;7.408;2022-12-10T16:42:26;6.30;99.90
4356;DHT22;64374;51.482;7.408;2022-12-10T16:44:57;6.20;99.90
4356;DHT22;64374;51.482;7.408;2022-12-10T16:47:35;6.30;99.90